Henrietta, Texas
Current Conditions -  °F | °C
As of 4:35 AM on Thursday 27 Nov 2014 (Local Time) from KCWC Reporting Station
Clear Clear  
Wind Chill: 36°   Ceiling: Unl
Heat Index: 36°   Visibility: 10mi
Dew Point: 26°   Wind: 0mph
Humidity: 67%   Direction: NA
Pressure: 30.5"   Gusts: NA
Location:  33.82°N, 98.2°W
Report Text: KCWC 271035Z AUTO 00000KT 10SM CLR 02/M03 A3050 RMK AO2 T00241032
Loading
Personal Weather Stations






























Interactive Weather Map New forecast layout! Learn more

10-Day Weather Forecast

Advertisements
Track Severe Weather on mobile